createdAt,value
2018-09-11T00:00:02.575Z,1004.36
2018-09-11T00:01:12.656Z,1004.38
2018-09-11T00:02:22.468Z,1004.41
2018-09-11T00:03:32.556Z,1004.38
2018-09-11T00:04:42.633Z,1004.39
2018-09-11T00:05:52.717Z,1004.37
2018-09-11T00:07:02.811Z,1004.41
2018-09-11T00:08:12.895Z,1004.43
2018-09-11T00:09:22.986Z,1004.44
2018-09-11T00:10:32.792Z,1004.45
2018-09-11T00:11:42.604Z,1004.45
2018-09-11T00:12:52.450Z,1004.42
2018-09-11T00:14:02.528Z,1004.37
2018-09-11T00:15:12.440Z,1004.37
2018-09-11T00:16:22.518Z,1004.34
2018-09-11T00:17:32.568Z,1004.29
2018-09-11T00:18:42.645Z,1004.29
2018-09-11T00:19:52.735Z,1004.32
2018-09-11T00:21:02.803Z,1004.32
2018-09-11T00:22:12.901Z,1004.36
2018-09-11T00:23:22.988Z,1004.35
2018-09-11T00:24:32.533Z,1004.4
2018-09-11T00:25:42.610Z,1004.44
2018-09-11T00:26:52.712Z,1004.43
2018-09-11T00:28:02.814Z,1004.45
2018-09-11T00:29:12.889Z,1004.47
2018-09-11T00:30:22.960Z,1004.51
2018-09-11T00:31:32.775Z,1004.49
2018-09-11T00:32:42.070Z,1004.49
2018-09-11T00:33:51.906Z,1004.45
2018-09-11T00:35:01.767Z,1004.49
2018-09-11T00:36:11.580Z,1004.44
2018-09-11T00:37:21.644Z,1004.44
2018-09-11T00:38:31.762Z,1004.43
2018-09-11T00:39:41.876Z,1004.45
2018-09-11T00:40:51.955Z,1004.49
2018-09-11T00:42:02.038Z,1004.51
2018-09-11T00:43:11.595Z,1004.49
2018-09-11T00:44:21.730Z,1004.56
2018-09-11T00:45:31.865Z,1004.53
2018-09-11T00:46:41.694Z,1004.56
2018-09-11T00:47:51.790Z,1004.53
2018-09-11T00:49:01.603Z,1004.52
2018-09-11T00:50:11.725Z,1004.52
2018-09-11T00:51:21.817Z,1004.51
2018-09-11T00:52:31.900Z,1004.53
2018-09-11T00:53:41.696Z,1004.54
2018-09-11T00:54:51.504Z,1004.55
2018-09-11T00:56:01.584Z,1004.52
2018-09-11T00:57:11.675Z,1004.56
2018-09-11T00:58:21.236Z,1004.59
2018-09-11T00:59:31.301Z,1004.56
2018-09-11T01:00:41.372Z,1004.53
2018-09-11T01:01:51.507Z,1004.57
2018-09-11T01:03:01.600Z,1004.6
2018-09-11T01:04:11.412Z,1004.58
2018-09-11T01:05:21.487Z,1004.59
2018-09-11T01:06:31.306Z,1004.58
2018-09-11T01:07:41.422Z,1004.59
2018-09-11T01:08:51.494Z,1004.53
2018-09-11T01:10:01.596Z,1004.55
2018-09-11T01:11:11.731Z,1004.57
2018-09-11T01:12:21.801Z,1004.56
2018-09-11T01:13:31.870Z,1004.59
2018-09-11T01:14:41.932Z,1004.61
2018-09-11T01:15:51.761Z,1004.62
2018-09-11T01:17:01.575Z,1004.58
2018-09-11T01:18:11.672Z,1004.57
2018-09-11T01:19:21.733Z,1004.59
2018-09-11T01:20:31.272Z,1004.62
2018-09-11T01:21:41.346Z,1004.59
2018-09-11T01:22:51.156Z,1004.6
2018-09-11T01:24:01.239Z,1004.61
2018-09-11T01:25:11.353Z,1004.62
2018-09-11T01:26:21.419Z,1004.63
2018-09-11T01:27:31.541Z,1004.61
2018-09-11T01:28:41.349Z,1004.63
2018-09-11T01:29:51.158Z,1004.65
2018-09-11T01:31:01.681Z,1004.66
2018-09-11T01:32:11.751Z,1004.69
2018-09-11T01:33:21.820Z,1004.66
2018-09-11T01:34:31.886Z,1004.66
2018-09-11T01:35:41.964Z,1004.62
2018-09-11T01:36:52.090Z,1004.63
2018-09-11T01:38:02.171Z,1004.64
2018-09-11T01:39:12.252Z,1004.61
2018-09-11T01:40:22.344Z,1004.67
2018-09-11T01:41:32.411Z,1004.7
2018-09-11T01:42:42.227Z,1004.71
2018-09-11T01:43:52.062Z,1004.68
2018-09-11T01:45:02.138Z,1004.69
2018-09-11T01:46:12.204Z,1004.68
2018-09-11T01:47:22.292Z,1004.66
2018-09-11T01:48:32.500Z,1004.61
2018-09-11T01:49:42.576Z,1004.63
2018-09-11T01:50:52.665Z,1004.61
2018-09-11T01:52:02.762Z,1004.64
2018-09-11T01:53:12.861Z,1004.63
2018-09-11T01:54:22.997Z,1004.63
2018-09-11T01:55:33.060Z,1004.63
2018-09-11T01:56:43.128Z,1004.63
2018-09-11T01:57:53.203Z,1004.62
2018-09-11T01:59:03.272Z,1004.61
2018-09-11T02:00:12.827Z,1004.65
2018-09-11T02:01:22.894Z,1004.61
2018-09-11T02:02:32.980Z,1004.62
2018-09-11T02:03:42.786Z,1004.59
2018-09-11T02:04:52.876Z,1004.58
2018-09-11T02:06:02.946Z,1004.59
2018-09-11T02:07:13.006Z,1004.58
2018-09-11T02:08:22.828Z,1004.59
2018-09-11T02:09:32.894Z,1004.59
2018-09-11T02:10:42.991Z,1004.57
2018-09-11T02:11:53.059Z,1004.56
2018-09-11T02:13:03.252Z,1004.55
2018-09-11T02:14:13.331Z,1004.56
2018-09-11T02:15:23.400Z,1004.59
2018-09-11T02:16:33.482Z,1004.58
2018-09-11T02:17:43.609Z,1004.58
2018-09-11T02:18:53.685Z,1004.62
2018-09-11T02:20:03.762Z,1004.61
2018-09-11T02:21:13.311Z,1004.62
2018-09-11T02:22:23.385Z,1004.68
2018-09-11T02:23:33.504Z,1004.71
2018-09-11T02:24:43.576Z,1004.72
2018-09-11T02:25:53.385Z,1004.71
2018-09-11T02:27:03.190Z,1004.71
2018-09-11T02:28:13.125Z,1004.7
2018-09-11T02:29:23.266Z,1004.69
2018-09-11T02:30:33.076Z,1004.68
2018-09-11T02:31:42.895Z,1004.68
2018-09-11T02:32:52.721Z,1004.67
2018-09-11T02:34:02.848Z,1004.69
2018-09-11T02:35:12.724Z,1004.72
2018-09-11T02:36:22.560Z,1004.72
2018-09-11T02:37:32.640Z,1004.68
2018-09-11T02:38:42.465Z,1004.68
2018-09-11T02:39:52.557Z,1004.71
2018-09-11T02:41:02.633Z,1004.73
2018-09-11T02:42:12.190Z,1004.78
2018-09-11T02:43:22.277Z,1004.79
2018-09-11T02:44:32.340Z,1004.8
2018-09-11T02:45:42.431Z,1004.8
2018-09-11T02:46:52.497Z,1004.82
2018-09-11T02:48:02.313Z,1004.79
2018-09-11T02:49:12.385Z,1004.8
2018-09-11T02:50:22.475Z,1004.75
2018-09-11T02:51:33.041Z,1004.8
2018-09-11T02:52:44.678Z,1004.76
2018-09-11T02:53:54.742Z,1004.76
2018-09-11T02:55:04.547Z,1004.73
2018-09-11T02:56:14.636Z,1004.78
2018-09-11T02:57:24.716Z,1004.74
2018-09-11T02:58:34.849Z,1004.79
2018-09-11T02:59:44.908Z,1004.74
2018-09-11T03:00:55.001Z,1004.74
2018-09-11T03:02:05.068Z,1004.72
2018-09-11T03:34:53.471Z,1004.66
2018-09-11T03:36:03.533Z,1004.7
2018-09-11T03:37:13.615Z,1004.71
2018-09-11T03:38:23.702Z,1004.75
2018-09-11T03:39:33.784Z,1004.77
2018-09-11T03:40:43.846Z,1004.76
2018-09-11T03:41:53.654Z,1004.78
2018-09-11T03:43:03.713Z,1004.74
2018-09-11T03:44:13.826Z,1004.78
2018-09-11T03:45:24.542Z,1004.79
2018-09-11T03:46:34.634Z,1004.77
2018-09-11T03:47:44.755Z,1004.85
2018-09-11T03:48:54.814Z,1004.84
2018-09-11T03:50:04.888Z,1004.84
2018-09-11T03:51:14.967Z,1004.86
2018-09-11T03:52:25.045Z,1004.84
2018-09-11T03:53:35.188Z,1004.84
2018-09-11T03:54:45.322Z,1004.81
2018-09-11T03:55:55.185Z,1004.82
2018-09-11T03:57:05.267Z,1004.81
2018-09-11T03:58:15.338Z,1004.83
2018-09-11T03:59:25.503Z,1004.83
2018-09-11T04:00:35.669Z,1004.83
2018-09-11T04:01:45.737Z,1004.84
2018-09-11T04:02:55.887Z,1004.88
2018-09-11T04:04:05.956Z,1004.91
2018-09-11T04:05:16.082Z,1004.93
2018-09-11T04:06:26.024Z,1004.96
2018-09-11T04:07:35.836Z,1004.96
2018-09-11T04:08:45.947Z,1004.93
2018-09-11T04:09:55.772Z,1005
2018-09-11T04:11:05.641Z,1004.96
2018-09-11T04:12:15.717Z,1004.98
2018-09-11T04:13:25.799Z,1005
2018-09-11T04:14:35.867Z,1005
2018-09-11T04:15:45.936Z,1004.98
2018-09-11T04:16:55.773Z,1005.05
2018-09-11T04:18:05.843Z,1005.04
2018-09-11T04:19:15.917Z,1005.02
2018-09-11T04:20:25.994Z,1005.02
2018-09-11T04:21:35.539Z,1005.05
2018-09-11T04:22:45.408Z,1005.02
2018-09-11T04:23:55.206Z,1004.98
2018-09-11T04:25:05.285Z,1005
2018-09-11T04:26:15.106Z,1004.96
2018-09-11T04:27:25.179Z,1004.94
2018-09-11T04:28:35.245Z,1004.96
2018-09-11T04:29:45.058Z,1004.87
2018-09-11T04:30:55.145Z,1004.85
2018-09-11T04:32:04.700Z,1004.88
2018-09-11T04:33:14.831Z,1004.84
2018-09-11T04:34:24.627Z,1004.87
2018-09-11T04:35:34.833Z,1004.89
2018-09-11T04:36:44.653Z,1004.9
2018-09-11T04:37:54.748Z,1004.91
2018-09-11T04:39:04.835Z,1004.91
2018-09-11T04:40:15.134Z,1004.89
2018-09-11T04:41:24.963Z,1004.9
2018-09-11T04:42:35.050Z,1004.87
2018-09-11T04:43:44.923Z,1004.86
2018-09-11T04:44:55.000Z,1004.86
2018-09-11T04:46:05.088Z,1004.86
2018-09-11T04:47:14.898Z,1004.91
2018-09-11T04:48:24.982Z,1004.92
2018-09-11T04:49:34.792Z,1004.93
2018-09-11T04:50:44.872Z,1004.9
2018-09-11T04:51:54.948Z,1004.92
2018-09-11T04:53:05.013Z,1004.91
2018-09-11T04:54:15.082Z,1004.92
2018-09-11T04:55:25.187Z,1004.97
2018-09-11T04:56:34.999Z,1005
2018-09-11T04:57:45.231Z,1005.03
2018-09-11T04:58:55.047Z,1005.03
2018-09-11T05:00:04.892Z,1005.08
2018-09-11T05:01:14.730Z,1005.08
2018-09-11T05:02:24.556Z,1005.08
2018-09-11T05:03:34.411Z,1005.06
2018-09-11T05:04:44.288Z,1005.08
2018-09-11T05:05:54.101Z,1005.08
2018-09-11T05:07:04.178Z,1005.05
2018-09-11T05:08:14.250Z,1005.03
2018-09-11T05:09:24.120Z,1005.05
2018-09-11T05:10:34.228Z,1005.04
2018-09-11T05:11:43.800Z,1005.05
2018-09-11T05:12:53.351Z,1005.03
2018-09-11T05:14:03.424Z,1005.08
2018-09-11T05:15:13.589Z,1005.09
2018-09-11T05:16:23.655Z,1005.08
2018-09-11T05:17:33.459Z,1005.1
2018-09-11T05:18:43.540Z,1005.1
2018-09-11T05:19:53.624Z,1005.13
2018-09-11T05:21:03.537Z,1005.13
2018-09-11T05:22:13.604Z,1005.15
2018-09-11T05:23:23.683Z,1005.14
2018-09-11T05:24:33.738Z,1005.16
2018-09-11T05:25:43.580Z,1005.15
2018-09-11T05:26:53.412Z,1005.12
2018-09-11T05:28:03.498Z,1005.15
2018-09-11T05:29:13.599Z,1005.13
2018-09-11T05:30:23.681Z,1005.16
2018-09-11T05:31:33.753Z,1005.18
2018-09-11T05:32:43.862Z,1005.18
2018-09-11T05:33:53.943Z,1005.18
2018-09-11T05:35:03.756Z,1005.19
2018-09-11T05:36:13.632Z,1005.15
2018-09-11T05:37:23.707Z,1005.15
2018-09-11T05:38:33.834Z,1005.13
2018-09-11T05:39:43.638Z,1005.15
2018-09-11T05:40:53.467Z,1005.13
2018-09-11T05:42:03.539Z,1005.14
2018-09-11T05:43:13.619Z,1005.1
2018-09-11T05:44:23.764Z,1005.11
2018-09-11T05:45:33.578Z,1005.11
2018-09-11T05:46:43.400Z,1005.14
2018-09-11T05:47:53.491Z,1005.14
2018-09-11T05:49:03.560Z,1005.11
2018-09-11T05:50:13.685Z,1005.1
2018-09-11T05:51:23.783Z,1005.1
2018-09-11T05:52:33.601Z,1005.1
2018-09-11T05:53:43.418Z,1005.12
2018-09-11T05:54:53.489Z,1005.14
2018-09-11T05:56:03.563Z,1005.19
2018-09-11T05:57:13.791Z,1005.2
2018-09-11T05:58:23.946Z,1005.14
2018-09-11T05:59:34.716Z,1005.13
2018-09-11T06:00:44.524Z,1005.14
2018-09-11T06:01:54.650Z,1005.14
2018-09-11T06:03:04.739Z,1005.18
2018-09-11T06:04:14.850Z,1005.16
2018-09-11T06:05:24.977Z,1005.19
2018-09-11T06:06:35.286Z,1005.21
2018-09-11T06:07:45.393Z,1005.24
2018-09-11T06:08:55.479Z,1005.26
2018-09-11T06:10:05.301Z,1005.25
2018-09-11T06:11:15.407Z,1005.27
2018-09-11T06:12:25.256Z,1005.26
2018-09-11T06:13:35.345Z,1005.26
2018-09-11T06:14:45.457Z,1005.28
2018-09-11T06:15:55.549Z,1005.27
2018-09-11T06:17:06.155Z,1005.28
2018-09-11T06:18:15.975Z,1005.28
2018-09-11T06:19:25.832Z,1005.26
2018-09-11T06:20:35.910Z,1005.32
2018-09-11T06:21:46.013Z,1005.32
2018-09-11T06:22:56.095Z,1005.34
2018-09-11T06:24:06.181Z,1005.31
2018-09-11T06:25:16.309Z,1005.39
2018-09-11T06:26:26.394Z,1005.38
2018-09-11T06:27:36.227Z,1005.36
2018-09-11T06:28:46.309Z,1005.35
2018-09-11T06:29:56.275Z,1005.33
2018-09-11T06:31:06.410Z,1005.37
2018-09-11T06:32:17.291Z,1005.38
2018-09-11T06:33:27.153Z,1005.41
2018-09-11T06:34:37.267Z,1005.39
2018-09-11T06:35:47.093Z,1005.34
2018-09-11T06:36:57.012Z,1005.31
2018-09-11T06:38:07.194Z,1005.33
2018-09-11T06:39:17.025Z,1005.35
2018-09-11T06:40:26.845Z,1005.32
2018-09-11T06:41:36.935Z,1005.34
2018-09-11T06:42:47.088Z,1005.33
2018-09-11T06:43:57.169Z,1005.38
2018-09-11T06:45:06.988Z,1005.33
2018-09-11T06:46:17.068Z,1005.33
2018-09-11T06:47:26.873Z,1005.37
2018-09-11T06:48:36.947Z,1005.36
2018-09-11T06:49:47.033Z,1005.36
2018-09-11T06:50:57.122Z,1005.37
2018-09-11T06:52:07.202Z,1005.36
2018-09-11T06:53:17.280Z,1005.38
2018-09-11T06:54:27.472Z,1005.4
2018-09-11T06:55:37.649Z,1005.41
2018-09-11T06:56:47.728Z,1005.44
2018-09-11T06:57:57.558Z,1005.47
2018-09-11T06:59:07.733Z,1005.48
2018-09-11T07:00:18.123Z,1005.49
2018-09-11T07:01:28.255Z,1005.52
2018-09-11T07:02:38.068Z,1005.46
2018-09-11T07:03:48.148Z,1005.47
2018-09-11T07:04:58.229Z,1005.49
2018-09-11T07:06:08.311Z,1005.55
2018-09-11T07:07:18.499Z,1005.54
2018-09-11T07:08:28.636Z,1005.54
2018-09-11T07:09:38.609Z,1005.58
2018-09-11T07:10:48.409Z,1005.55
2018-09-11T07:11:58.505Z,1005.58
2018-09-11T07:13:08.321Z,1005.56
2018-09-11T07:14:18.449Z,1005.6
2018-09-11T07:15:28.551Z,1005.56
2018-09-11T07:16:38.364Z,1005.57
2018-09-11T07:17:48.451Z,1005.62
2018-09-11T07:18:58.767Z,1005.59
2018-09-11T07:20:09.086Z,1005.59
2018-09-11T07:21:21.541Z,1005.6
2018-09-11T07:22:31.615Z,1005.63
2018-09-11T07:23:41.445Z,1005.6
2018-09-11T07:24:51.535Z,1005.58
2018-09-11T07:26:01.373Z,1005.6
2018-09-11T07:27:10.811Z,1005.61
2018-09-11T07:28:20.906Z,1005.61
2018-09-11T07:29:31.009Z,1005.59
2018-09-11T07:30:41.096Z,1005.63
2018-09-11T07:31:51.188Z,1005.63
2018-09-11T07:33:01.358Z,1005.65
2018-09-11T07:34:11.163Z,1005.66
2018-09-11T07:35:20.980Z,1005.69
2018-09-11T07:36:31.123Z,1005.71
2018-09-11T07:37:41.312Z,1005.75
2018-09-11T07:38:51.354Z,1005.73
2018-09-11T07:40:01.442Z,1005.75
2018-09-11T07:41:11.548Z,1005.78
2018-09-11T07:42:21.623Z,1005.77
2018-09-11T07:43:31.714Z,1005.8
2018-09-11T07:44:41.795Z,1005.77
2018-09-11T07:45:51.623Z,1005.79
2018-09-11T07:47:01.702Z,1005.75
2018-09-11T07:48:11.877Z,1005.79
2018-09-11T07:49:21.950Z,1005.81
2018-09-11T07:50:32.030Z,1005.79
2018-09-11T07:51:41.837Z,1005.8
2018-09-11T07:52:51.409Z,1005.87
2018-09-11T07:54:02.110Z,1005.87
2018-09-11T07:55:12.213Z,1005.88
2018-09-11T07:56:22.055Z,1005.86
2018-09-11T07:57:31.923Z,1005.86
2018-09-11T07:58:42.012Z,1005.88
2018-09-11T07:59:52.260Z,1005.89
2018-09-11T08:01:02.116Z,1005.96
2018-09-11T08:02:12.188Z,1005.89
2018-09-11T08:03:22.256Z,1005.93
2018-09-11T08:04:32.362Z,1005.94
2018-09-11T08:05:42.433Z,1005.94
2018-09-11T08:06:52.518Z,1005.94
2018-09-11T08:08:02.591Z,1005.95
2018-09-11T08:09:12.412Z,1005.93
2018-09-11T08:10:22.280Z,1005.89
2018-09-11T08:11:32.157Z,1005.89
2018-09-11T08:12:42.267Z,1005.91
2018-09-11T08:13:52.346Z,1005.87
2018-09-11T08:15:01.905Z,1005.86
2018-09-11T08:16:11.739Z,1005.89
2018-09-11T08:17:21.681Z,1005.85
2018-09-11T08:18:31.757Z,1005.89
2018-09-11T08:19:41.845Z,1005.86
2018-09-11T08:20:52.043Z,1005.87
2018-09-11T08:22:02.152Z,1005.86
2018-09-11T08:23:12.234Z,1005.9
2018-09-11T08:24:22.313Z,1005.92
2018-09-11T08:25:32.397Z,1005.96
2018-09-11T08:26:42.462Z,1005.93
2018-09-11T08:27:52.542Z,1005.99
2018-09-11T08:29:02.624Z,1005.99
2018-09-11T08:30:12.794Z,1005.93
2018-09-11T08:31:22.607Z,1005.99
2018-09-11T08:32:32.676Z,1006.01
2018-09-11T08:33:42.761Z,1006
2018-09-11T08:34:52.862Z,1006.02
2018-09-11T08:36:02.931Z,1006
2018-09-11T08:37:13.025Z,1005.98
2018-09-11T08:38:23.125Z,1005.95
2018-09-11T08:39:33.224Z,1005.91
2018-09-11T08:40:43.312Z,1005.93
2018-09-11T08:41:53.146Z,1005.98
2018-09-11T08:43:03.729Z,1005.98
2018-09-11T08:44:13.803Z,1005.95
2018-09-11T08:45:23.889Z,1005.98
2018-09-11T08:46:33.745Z,1005.99
2018-09-11T08:47:43.930Z,1005.93
2018-09-11T08:48:53.785Z,1005.92
2018-09-11T08:50:03.881Z,1005.93
2018-09-11T08:51:14.002Z,1005.89
2018-09-11T08:52:24.080Z,1005.87
2018-09-11T08:53:34.357Z,1005.86
2018-09-11T08:54:44.450Z,1005.84
2018-09-11T08:55:54.557Z,1005.91
2018-09-11T08:57:04.646Z,1005.95
2018-09-11T08:58:14.732Z,1005.9
2018-09-11T08:59:24.935Z,1005.98
2018-09-11T09:00:35.021Z,1005.89
2018-09-11T09:01:44.322Z,1005.93
2018-09-11T09:02:54.152Z,1005.86
2018-09-11T09:04:04.032Z,1005.9
2018-09-11T09:05:14.139Z,1005.92
2018-09-11T09:06:24.218Z,1005.9
2018-09-11T09:07:34.039Z,1005.94
2018-09-11T09:08:44.118Z,1005.92
2018-09-11T09:09:54.260Z,1005.92
2018-09-11T09:11:04.746Z,1005.91
2018-09-11T09:12:14.852Z,1005.91
2018-09-11T09:13:24.924Z,1005.93
2018-09-11T09:14:34.488Z,1005.96
2018-09-11T09:15:44.642Z,1005.93
2018-09-11T09:16:54.429Z,1005.91
2018-09-11T09:18:04.558Z,1005.88
2018-09-11T09:19:14.689Z,1005.97
2018-09-11T09:20:24.795Z,1005.86
2018-09-11T09:21:34.632Z,1005.88
2018-09-11T09:22:44.734Z,1005.9
2018-09-11T09:23:54.823Z,1005.9
2018-09-11T09:25:04.941Z,1005.93
2018-09-11T09:26:14.749Z,1005.83
2018-09-11T09:27:24.946Z,1005.86
2018-09-11T09:28:34.971Z,1005.92
2018-09-11T09:29:45.098Z,1005.9
2018-09-11T09:30:55.179Z,1005.91
2018-09-11T09:32:05.261Z,1005.91
2018-09-11T09:33:15.603Z,1005.89
2018-09-11T09:34:25.703Z,1006.01
2018-09-11T09:35:35.543Z,1005.89
2018-09-11T09:36:45.701Z,1005.87
2018-09-11T09:37:56.048Z,1005.89
2018-09-11T09:39:06.166Z,1005.88
2018-09-11T09:40:16.260Z,1005.9
2018-09-11T09:41:26.364Z,1005.86
2018-09-11T09:42:36.314Z,1005.83
2018-09-11T09:43:46.464Z,1005.94
2018-09-11T09:44:56.812Z,1005.95
2018-09-11T09:46:06.375Z,1005.9
2018-09-11T09:47:16.191Z,1005.95
2018-09-11T09:48:26.296Z,1005.99
2018-09-11T09:49:36.428Z,1005.9
2018-09-11T09:50:46.544Z,1005.95
2018-09-11T09:51:57.127Z,1006.01
2018-09-11T09:53:07.234Z,1005.87
2018-09-11T09:54:16.555Z,1005.92
2018-09-11T09:55:26.679Z,1005.94
2018-09-11T09:56:36.786Z,1005.99
2018-09-11T09:57:46.880Z,1005.92
2018-09-11T09:58:57.208Z,1005.91
2018-09-11T10:00:07.561Z,1006.02
2018-09-11T10:01:17.409Z,1005.95
2018-09-11T10:02:27.544Z,1005.91
2018-09-11T10:03:37.645Z,1005.89
2018-09-11T10:04:47.222Z,1005.9
2018-09-11T10:05:57.485Z,1005.88
2018-09-11T10:07:07.418Z,1005.88
2018-09-11T10:08:17.489Z,1005.89
2018-09-11T10:09:27.321Z,1005.87
2018-09-11T10:10:37.190Z,1005.89
2018-09-11T10:11:47.137Z,1005.87
2018-09-11T10:12:57.318Z,1005.88
2018-09-11T10:14:07.435Z,1005.84
2018-09-11T10:15:17.290Z,1005.86
2018-09-11T10:16:27.386Z,1005.83
2018-09-11T10:17:37.541Z,1005.85
2018-09-11T10:18:47.582Z,1005.77
2018-09-11T10:19:57.670Z,1005.84
2018-09-11T10:21:07.749Z,1005.79
2018-09-11T10:22:17.911Z,1005.76
2018-09-11T10:23:28.014Z,1005.83
2018-09-11T10:24:37.883Z,1005.81
2018-09-11T10:25:47.713Z,1005.8
2018-09-11T10:26:57.811Z,1005.79
2018-09-11T10:28:08.135Z,1005.79
2018-09-11T10:29:18.261Z,1005.79
2018-09-11T10:30:28.389Z,1005.78
2018-09-11T10:31:38.499Z,1005.76
2018-09-11T10:32:48.592Z,1005.82
2018-09-11T10:33:58.418Z,1005.76
2018-09-11T10:35:08.546Z,1005.71
2018-09-11T10:36:18.653Z,1005.73
2018-09-11T10:37:28.790Z,1005.71
2018-09-11T10:38:38.620Z,1005.73
2018-09-11T10:39:48.713Z,1005.7
2018-09-11T10:40:58.896Z,1005.65
2018-09-11T10:42:09.002Z,1005.66
2018-09-11T10:43:19.109Z,1005.68
2018-09-11T10:44:29.253Z,1005.65
2018-09-11T10:45:39.375Z,1005.61
2018-09-11T10:46:49.272Z,1005.6
2018-09-11T10:47:59.368Z,1005.57
2018-09-11T10:49:09.472Z,1005.55
2018-09-11T10:50:19.544Z,1005.55
2018-09-11T10:51:29.707Z,1005.54
2018-09-11T10:52:39.852Z,1005.49
2018-09-11T10:53:49.957Z,1005.57
2018-09-11T10:55:00.036Z,1005.57
2018-09-11T10:56:10.170Z,1005.55
2018-09-11T10:57:20.275Z,1005.5
2018-09-11T10:58:30.418Z,1005.54
2018-09-11T10:59:40.537Z,1005.53
2018-09-11T11:00:50.640Z,1005.49
2018-09-11T11:02:00.936Z,1005.52
2018-09-11T11:03:11.260Z,1005.49
2018-09-11T11:04:21.469Z,1005.49
2018-09-11T11:05:31.564Z,1005.47
2018-09-11T11:06:41.670Z,1005.52
2018-09-11T11:07:51.759Z,1005.47
2018-09-11T11:09:01.850Z,1005.4
2018-09-11T11:10:11.471Z,1005.41
2018-09-11T11:11:21.296Z,1005.35
2018-09-11T11:12:31.120Z,1005.37
2018-09-11T11:13:40.942Z,1005.28
2018-09-11T11:14:50.754Z,1005.33
2018-09-11T11:16:00.937Z,1005.34
2018-09-11T11:17:11.113Z,1005.34
2018-09-11T11:18:21.160Z,1005.35
2018-09-11T11:19:30.989Z,1005.36
2018-09-11T11:20:40.759Z,1005.34
2018-09-11T11:21:50.928Z,1005.31
2018-09-11T11:23:01.360Z,1005.22
2018-09-11T11:24:11.467Z,1005.23
2018-09-11T11:25:21.565Z,1005.23
2018-09-11T11:26:31.918Z,1005.27
2018-09-11T11:27:42.038Z,1005.3
2018-09-11T11:28:52.395Z,1005.25
2018-09-11T11:30:02.522Z,1005.27
2018-09-11T11:31:12.641Z,1005.21
2018-09-11T11:32:22.747Z,1005.21
2018-09-11T11:33:32.862Z,1005.18
2018-09-11T11:34:42.699Z,1005.15
2018-09-11T11:35:52.807Z,1005.19
2018-09-11T11:37:03.256Z,1005.16
2018-09-11T11:38:13.882Z,1005.15
2018-09-11T11:39:23.985Z,1005.12
2018-09-11T11:40:34.091Z,1005.17
2018-09-11T11:41:44.248Z,1005.16
2018-09-11T11:42:54.756Z,1005.12
2018-09-11T11:44:04.895Z,1005.14
2018-09-11T11:45:14.976Z,1005.1
2018-09-11T11:46:25.064Z,1005.12
2018-09-11T11:47:34.937Z,1005.06
2018-09-11T11:48:45.047Z,1005.04
2018-09-11T11:49:55.169Z,1005.05
2018-09-11T11:51:05.012Z,1005.05
2018-09-11T11:52:15.118Z,1005.02
2018-09-11T11:53:24.987Z,1005
2018-09-11T11:54:35.090Z,1004.97
2018-09-11T11:55:45.505Z,1005.03
2018-09-11T11:56:55.625Z,1005
2018-09-11T11:58:05.725Z,1005
2018-09-11T11:59:15.569Z,1004.96
2018-09-11T12:00:25.409Z,1004.96
2018-09-11T12:01:35.375Z,1004.98
2018-09-11T12:02:46.014Z,1004.96
2018-09-11T12:03:56.111Z,1004.97
2018-09-11T12:05:06.235Z,1004.93
2018-09-11T12:06:16.076Z,1004.93
2018-09-11T12:07:26.402Z,1004.97
2018-09-11T12:08:36.257Z,1004.96
2018-09-11T12:09:46.379Z,1004.96
2018-09-11T12:10:56.224Z,1004.91
2018-09-11T12:12:06.307Z,1004.89
2018-09-11T12:13:16.129Z,1004.88
2018-09-11T12:14:26.219Z,1004.86
2018-09-11T12:15:36.291Z,1004.84
2018-09-11T12:16:46.178Z,1004.85
2018-09-11T12:17:56.205Z,1004.8
2018-09-11T12:19:06.295Z,1004.75
2018-09-11T12:20:16.117Z,1004.78
2018-09-11T12:21:25.939Z,1004.73
2018-09-11T12:22:36.035Z,1004.79
2018-09-11T12:23:45.859Z,1004.78
2018-09-11T12:24:55.969Z,1004.8
2018-09-11T12:26:06.129Z,1004.84
2018-09-11T12:27:16.161Z,1004.83
2018-09-11T12:28:26.306Z,1004.8
2018-09-11T12:29:36.143Z,1004.83
2018-09-11T12:30:45.958Z,1004.81
2018-09-11T12:31:56.161Z,1004.8
2018-09-11T12:33:06.259Z,1004.8
2018-09-11T12:34:16.351Z,1004.76
2018-09-11T12:35:26.201Z,1004.75
2018-09-11T12:36:36.287Z,1004.74
2018-09-11T12:37:46.395Z,1004.75
2018-09-11T12:38:56.480Z,1004.73
2018-09-11T12:40:06.618Z,1004.67
2018-09-11T12:41:16.823Z,1004.64
2018-09-11T12:42:26.936Z,1004.69
2018-09-11T12:43:37.039Z,1004.67
2018-09-11T12:44:47.150Z,1004.64
2018-09-11T12:45:57.109Z,1004.61
2018-09-11T12:47:08.075Z,1004.6
2018-09-11T12:48:20.222Z,1004.58
2018-09-11T12:49:32.089Z,1004.58
2018-09-11T12:50:42.174Z,1004.59
2018-09-11T12:51:52.000Z,1004.6
2018-09-11T12:53:02.099Z,1004.53
2018-09-11T12:54:12.172Z,1004.48
2018-09-11T12:55:22.275Z,1004.52
2018-09-11T12:56:32.347Z,1004.52
2018-09-11T12:57:42.195Z,1004.56
2018-09-11T12:58:52.303Z,1004.51
2018-09-11T13:00:02.148Z,1004.6
2018-09-11T13:01:12.215Z,1004.52
2018-09-11T13:02:22.321Z,1004.52
2018-09-11T13:03:32.967Z,1004.53
2018-09-11T13:04:43.050Z,1004.52
2018-09-11T13:05:53.192Z,1004.52
2018-09-11T13:07:03.826Z,1004.5
2018-09-11T13:08:13.920Z,1004.49
2018-09-11T13:09:24.046Z,1004.58
2018-09-11T13:10:34.233Z,1004.48
2018-09-11T13:11:44.310Z,1004.49
2018-09-11T13:12:54.419Z,1004.52
2018-09-11T13:14:04.513Z,1004.5
2018-09-11T13:15:14.606Z,1004.56
2018-09-11T13:16:24.789Z,1004.49
2018-09-11T13:17:34.900Z,1004.51
2018-09-11T13:18:44.971Z,1004.53
2018-09-11T13:19:55.063Z,1004.49
2018-09-11T13:21:05.160Z,1004.48
2018-09-11T13:22:15.272Z,1004.44
2018-09-11T13:23:25.356Z,1004.49
2018-09-11T13:24:35.463Z,1004.4
2018-09-11T13:25:45.894Z,1004.41
2018-09-11T13:26:55.702Z,1004.43
2018-09-11T13:28:05.802Z,1004.38
2018-09-11T13:29:15.932Z,1004.45
2018-09-11T13:30:26.036Z,1004.38
2018-09-11T13:31:36.149Z,1004.38
2018-09-11T13:32:45.968Z,1004.37
2018-09-11T13:33:56.141Z,1004.31
2018-09-11T13:35:06.256Z,1004.44
2018-09-11T13:36:16.090Z,1004.34
2018-09-11T13:37:25.928Z,1004.34
2018-09-11T13:38:36.032Z,1004.3
2018-09-11T13:39:46.152Z,1004.31
2018-09-11T13:40:56.295Z,1004.32
2018-09-11T13:42:06.384Z,1004.26
2018-09-11T13:43:16.498Z,1004.27
2018-09-11T13:44:26.636Z,1004.27
2018-09-11T13:45:36.731Z,1004.37
2018-09-11T13:46:46.859Z,1004.34
2018-09-11T13:47:57.240Z,1004.34
2018-09-11T13:49:07.340Z,1004.35
2018-09-11T13:50:17.162Z,1004.36
2018-09-11T13:51:27.258Z,1004.35
2018-09-11T13:52:37.415Z,1004.31
2018-09-11T13:53:47.000Z,1004.31
2018-09-11T13:54:56.818Z,1004.25
2018-09-11T13:56:06.709Z,1004.31
2018-09-11T13:57:17.196Z,1004.29
2018-09-11T13:58:27.166Z,1004.31
2018-09-11T13:59:37.214Z,1004.28
2018-09-11T14:00:47.303Z,1004.31
2018-09-11T14:01:57.400Z,1004.34
2018-09-11T14:03:07.505Z,1004.24
2018-09-11T14:04:17.654Z,1004.27
2018-09-11T14:05:27.929Z,1004.32
2018-09-11T14:06:37.753Z,1004.32
2018-09-11T14:07:47.847Z,1004.36
2018-09-11T14:08:57.419Z,1004.31
2018-09-11T14:10:07.564Z,1004.31
2018-09-11T14:11:17.655Z,1004.3
2018-09-11T14:12:27.747Z,1004.25
2018-09-11T14:13:37.590Z,1004.28
2018-09-11T14:14:47.419Z,1004.29
2018-09-11T14:15:57.459Z,1004.28
2018-09-11T14:17:07.555Z,1004.26
2018-09-11T14:18:17.637Z,1004.32
2018-09-11T14:19:27.462Z,1004.28
2018-09-11T14:20:37.559Z,1004.24
2018-09-11T14:21:48.694Z,1004.27
2018-09-11T14:22:58.787Z,1004.28
2018-09-11T14:24:08.880Z,1004.27
2018-09-11T14:25:18.975Z,1004.26
2018-09-11T14:26:29.082Z,1004.23
2018-09-11T14:27:39.292Z,1004.29
2018-09-11T14:28:49.122Z,1004.32
2018-09-11T14:29:59.410Z,1004.26
2018-09-11T14:31:09.493Z,1004.33
2018-09-11T14:32:19.596Z,1004.38
2018-09-11T14:33:29.716Z,1004.36
2018-09-11T14:34:39.397Z,1004.31
2018-09-11T14:35:49.725Z,1004.35
2018-09-11T14:36:59.536Z,1004.3
2018-09-11T14:38:09.642Z,1004.36
2018-09-11T14:39:19.793Z,1004.32
2018-09-11T14:40:29.888Z,1004.34
2018-09-11T14:41:39.994Z,1004.34